Time;durP1;ratioP1;P1;durP2;ratioP2;P2;SDS_P1;SDS_P2;PMS_P1;PMS_P2;Temp;Humidity;BMP_temperature;BMP_pressure;BME280_temperature;BME280_humidity;BME280_pressure;Samples;Min_cycle;Max_cycle;Signal;HPM_P1;HPM_P2
2023/07/13 00:00:18;;;;;;;;;3.00;3.00;;;;;-147.70;100.00;61350.09;5059855;28;45264;-74
2023/07/13 00:02:43;;;;;;;;;3.00;1.00;;;;;-147.70;100.00;61350.09;5046155;28;46155;-75
2023/07/13 00:05:09;;;;;;;;;3.67;2.67;;;;;-147.70;100.00;61350.09;5039196;28;45523;-73
2023/07/13 00:07:35;;;;;;;;;2.00;1.67;;;;;-147.70;100.00;61350.09;5040666;28;45359;-74
2023/07/13 00:10:02;;;;;;;;;2.33;2.00;;;;;-147.70;100.00;61350.09;5051336;28;45469;-74
2023/07/13 00:12:31;;;;;;;;;1.67;1.00;;;;;-147.70;100.00;61350.09;5059120;28;46277;-75
2023/07/13 00:14:59;;;;;;;;;4.33;2.67;;;;;-147.70;100.00;61350.09;5059273;28;45385;-73
2023/07/13 00:17:26;;;;;;;;;3.00;1.33;;;;;-147.70;100.00;61350.09;5059258;28;45590;-73
2023/07/13 00:19:52;;;;;;;;;1.33;1.33;;;;;-147.70;100.00;61350.09;5047495;28;45227;-74
2023/07/13 00:22:19;;;;;;;;;1.00;1.00;;;;;-147.70;100.00;61350.09;5038546;28;46211;-74
2023/07/13 00:24:45;;;;;;;;;3.67;1.00;;;;;-147.70;100.00;61350.09;5038858;28;45585;-73
2023/07/13 00:27:11;;;;;;;;;3.00;2.00;;;;;-147.70;100.00;61350.09;5038967;28;45282;-73
2023/07/13 00:29:37;;;;;;;;;2.00;2.00;;;;;-147.70;100.00;61350.09;5039094;28;45385;-75
2023/07/13 00:32:06;;;;;;;;;1.00;1.00;;;;;-147.70;100.00;61350.09;5038834;28;46457;-72
2023/07/13 00:34:32;;;;;;;;;2.00;2.00;;;;;-147.70;100.00;61350.09;5039024;28;45223;-72
2023/07/13 00:36:58;;;;;;;;;4.33;2.00;;;;;-147.70;100.00;61350.09;5038878;28;45554;-72
2023/07/13 00:39:24;;;;;;;;;1.33;1.33;;;;;-147.70;100.00;61350.09;5056426;28;45453;-72
2023/07/13 00:41:50;;;;;;;;;1.00;0.00;;;;;-147.70;100.00;61350.09;5051893;28;46195;-72
2023/07/13 00:44:17;;;;;;;;;3.67;1.00;;;;;-147.70;100.00;61350.09;5038735;28;45357;-72
2023/07/13 00:46:42;;;;;;;;;5.00;2.00;;;;;-147.70;100.00;61350.09;5038955;28;45348;-72
2023/07/13 00:49:21;;;;;;;;;2.00;2.00;;;;;-147.70;100.00;61350.09;5038844;28;45297;-72
2023/07/13 00:51:53;;;;;;;;;4.67;1.00;;;;;-147.70;100.00;61350.09;5038355;28;47325;-73
2023/07/13 00:54:24;;;;;;;;;3.67;1.00;;;;;-147.70;100.00;61350.09;5038551;28;45412;-73
2023/07/13 00:56:53;;;;;;;;;6.33;2.00;;;;;-147.70;100.00;61350.09;5048019;28;45414;-72
2023/07/13 00:59:21;;;;;;;;;2.00;2.00;;;;;-147.70;100.00;61350.09;5053470;28;45430;-73
2023/07/13 01:01:47;;;;;;;;;1.00;1.00;;;;;-147.70;100.00;61350.09;5059907;28;45484;-72
2023/07/13 01:04:12;;;;;;;;;2.00;1.00;;;;;-147.70;100.00;61350.09;5057823;28;45369;-72
2023/07/13 01:06:39;;;;;;;;;3.33;2.00;;;;;-147.70;100.00;61350.09;5058344;28;45285;-72
2023/07/13 01:09:07;;;;;;;;;4.67;2.00;;;;;-147.70;100.00;61350.09;5058665;28;45392;-72
2023/07/13 01:11:33;;;;;;;;;1.33;1.33;;;;;-147.70;100.00;61350.09;5058131;28;45202;-72
2023/07/13 01:13:58;;;;;;;;;1.33;1.33;;;;;-147.70;100.00;61350.09;5057580;28;45373;-72
2023/07/13 01:16:27;;;;;;;;;2.33;1.33;;;;;-147.70;100.00;61350.09;5058169;28;45281;-71
2023/07/13 01:18:53;;;;;;;;;3.33;2.33;;;;;-147.70;100.00;61350.09;5057029;28;45511;-72
2023/07/13 01:21:18;;;;;;;;;5.00;2.00;;;;;-147.70;100.00;61350.09;5046387;28;46419;-73
2023/07/13 01:23:44;;;;;;;;;5.00;2.00;;;;;-147.70;100.00;61350.09;5057789;28;45425;-71
2023/07/13 01:26:11;;;;;;;;;2.33;1.00;;;;;-147.70;100.00;61350.09;5058252;28;45301;-72
2023/07/13 01:28:37;;;;;;;;;1.00;1.00;;;;;-147.70;100.00;61350.09;5058340;28;45546;-72
2023/07/13 01:31:04;;;;;;;;;4.00;1.67;;;;;-147.70;100.00;61350.09;5057591;28;47312;-73
2023/07/13 01:33:29;;;;;;;;;1.33;1.33;;;;;-147.70;100.00;61350.09;5057921;28;45319;-73
2023/07/13 01:35:57;;;;;;;;;3.00;3.00;;;;;-147.70;100.00;61350.09;5056520;28;45328;-72
2023/07/13 01:38:23;;;;;;;;;2.00;1.00;;;;;-147.70;100.00;61350.09;5058278;28;45566;-72
2023/07/13 01:40:49;;;;;;;;;3.67;1.67;;;;;-147.70;100.00;61350.09;5057760;28;46653;-72
2023/07/13 01:43:14;;;;;;;;;5.67;2.00;;;;;-147.70;100.00;61350.09;5041457;28;45392;-72
2023/07/13 01:45:40;;;;;;;;;1.00;1.00;;;;;-147.70;100.00;61350.09;5038026;28;45741;-72
2023/07/13 01:48:08;;;;;;;;;4.00;2.00;;;;;-147.70;100.00;61350.09;5037990;28;45284;-72
2023/07/13 01:50:34;;;;;;;;;4.00;2.00;;;;;-147.70;100.00;61350.09;5037161;28;47079;-72
2023/07/13 01:52:59;;;;;;;;;1.00;1.00;;;;;-147.70;100.00;61350.09;5037853;28;45262;-73
2023/07/13 01:55:25;;;;;;;;;3.00;2.00;;;;;-147.70;100.00;61350.09;5037701;28;45507;-73
2023/07/13 01:57:50;;;;;;;;;3.00;1.33;;;;;-147.70;100.00;61350.09;5038894;28;45303;-73
2023/07/13 02:00:16;;;;;;;;;4.00;1.50;;;;;-147.70;100.00;61350.09;5036150;28;46497;-72
2023/07/13 02:02:42;;;;;;;;;3.33;2.33;;;;;-147.70;100.00;61350.09;5038193;28;45410;-73
2023/07/13 02:05:08;;;;;;;;;3.00;2.00;;;;;-147.70;100.00;61350.09;5037599;28;45436;-73
2023/07/13 02:07:33;;;;;;;;;3.33;1.00;;;;;-147.70;100.00;61350.09;5040992;28;45469;-72
2023/07/13 02:10:00;;;;;;;;;3.00;2.00;;;;;-147.70;100.00;61350.09;5057393;28;47532;-73
2023/07/13 02:12:25;;;;;;;;;2.00;2.00;;;;;-147.70;100.00;61350.09;5057456;28;45367;-72
2023/07/13 02:14:50;;;;;;;;;3.33;2.00;;;;;-147.70;100.00;61350.09;5057607;28;45444;-73
2023/07/13 02:17:15;;;;;;;;;2.00;1.00;;;;;-147.70;100.00;61350.09;5057800;28;45316;-71
2023/07/13 02:19:41;;;;;;;;;1.67;1.67;;;;;-147.70;100.00;61350.09;5057257;28;46223;-71
2023/07/13 02:22:06;;;;;;;;;3.00;1.00;;;;;-147.70;100.00;61350.09;5055720;28;45355;-72
2023/07/13 02:24:32;;;;;;;;;2.33;1.33;;;;;-147.70;100.00;61350.09;5055701;28;45596;-72
2023/07/13 02:26:57;;;;;;;;;4.00;2.67;;;;;-147.70;100.00;61350.09;5057481;28;45418;-72
2023/07/13 02:29:22;;;;;;;;;3.67;3.00;;;;;-147.70;100.00;61350.09;5057239;28;47249;-72
2023/07/13 02:31:48;;;;;;;;;3.00;2.00;;;;;-147.70;100.00;61350.09;5057147;28;45534;-72
2023/07/13 02:34:13;;;;;;;;;2.67;1.33;;;;;-147.70;100.00;61350.09;5057208;28;45253;-71
2023/07/13 02:36:38;;;;;;;;;4.33;1.00;;;;;-147.70;100.00;61350.09;5057577;28;45351;-72
2023/07/13 02:39:06;;;;;;;;;6.67;2.33;;;;;-147.70;100.00;61350.09;5041087;28;46313;-71
2023/07/13 02:41:32;;;;;;;;;4.67;2.33;;;;;-147.70;100.00;61350.09;5037155;28;45514;-72
2023/07/13 02:44:03;;;;;;;;;3.00;1.00;;;;;-147.70;100.00;61350.09;5037032;28;46156;-72
2023/07/13 02:46:30;;;;;;;;;2.67;2.00;;;;;-147.70;100.00;61350.09;5040173;28;45244;-72
2023/07/13 02:48:55;;;;;;;;;4.33;1.67;;;;;-147.70;100.00;61350.09;5040213;28;47544;-72
2023/07/13 02:51:21;;;;;;;;;5.00;2.00;;;;;-147.70;100.00;61350.09;5040246;28;45348;-73
2023/07/13 02:53:46;;;;;;;;;5.00;4.00;;;;;-147.70;100.00;61350.09;5040880;28;45366;-72
2023/07/13 02:56:11;;;;;;;;;6.00;1.67;;;;;-147.70;100.00;61350.09;5040674;28;45345;-73
2023/07/13 02:58:38;;;;;;;;;3.67;2.00;;;;;-147.70;100.00;61350.09;5040380;28;45348;-72
2023/07/13 03:01:07;;;;;;;;;3.00;1.33;;;;;-147.70;100.00;61350.09;5040262;28;45385;-70
2023/07/13 03:03:33;;;;;;;;;2.33;1.67;;;;;-147.70;100.00;61350.09;5040297;28;45416;-72
2023/07/13 03:06:01;;;;;;;;;2.00;2.00;;;;;-147.70;100.00;61350.09;5040539;28;45315;-72
2023/07/13 03:08:27;;;;;;;;;8.33;3.00;;;;;-147.70;100.00;61350.09;5051294;28;47005;-72
2023/07/13 03:11:05;;;;;;;;;5.67;2.00;;;;;-147.70;100.00;61350.09;5043999;28;45320;-72
2023/07/13 03:13:30;;;;;;;;;4.00;1.00;;;;;-147.70;100.00;61350.09;5040359;28;45356;-73
2023/07/13 03:15:56;;;;;;;;;2.00;2.00;;;;;-147.70;100.00;61350.09;5055851;28;45546;-73
2023/07/13 03:18:21;;;;;;;;;1.00;1.00;;;;;-147.70;100.00;61350.09;5040045;28;45443;-73
2023/07/13 03:20:50;;;;;;;;;99.50;94.75;;;;;-147.70;100.00;61350.09;5039814;28;45393;-72
2023/07/13 03:23:16;;;;;;;;;5.00;4.00;;;;;-147.70;100.00;61350.09;5041959;28;45225;-73
2023/07/13 03:25:42;;;;;;;;;9.67;6.33;;;;;-147.70;100.00;61350.09;5060302;28;45315;-71
2023/07/13 03:28:07;;;;;;;;;3.00;3.00;;;;;-147.70;100.00;61350.09;5060050;28;45583;-71
2023/07/13 03:30:32;;;;;;;;;3.00;3.00;;;;;-147.70;100.00;61350.09;5059936;28;45192;-72
2023/07/13 03:32:58;;;;;;;;;6.00;4.00;;;;;-147.70;100.00;61350.09;5060417;28;45262;-73
2023/07/13 03:35:23;;;;;;;;;3.33;2.33;;;;;-147.70;100.00;61350.09;5055381;28;45474;-71
2023/07/13 03:37:48;;;;;;;;;4.67;2.00;;;;;-147.70;100.00;61350.09;5039695;28;45555;-72
2023/07/13 03:40:14;;;;;;;;;8.67;2.00;;;;;-147.70;100.00;61350.09;5039710;28;45440;-73
2023/07/13 03:42:39;;;;;;;;;3.00;2.00;;;;;-147.70;100.00;61350.09;5039929;28;45245;-72
2023/07/13 03:45:05;;;;;;;;;1.67;1.67;;;;;-147.70;100.00;61350.09;5040098;28;45408;-72
2023/07/13 03:47:30;;;;;;;;;4.00;3.00;;;;;-147.70;100.00;61350.09;5039397;28;46320;-71
2023/07/13 03:49:56;;;;;;;;;2.00;2.00;;;;;-147.70;100.00;61350.09;5039282;28;45422;-73
2023/07/13 03:52:21;;;;;;;;;97.25;91.75;;;;;-147.70;100.00;61350.09;5039601;28;45864;-72
2023/07/13 03:54:46;;;;;;;;;6.33;5.33;;;;;-147.70;100.00;61350.09;5039844;28;45270;-72
2023/07/13 03:57:12;;;;;;;;;8.00;5.00;;;;;-147.70;100.00;61350.09;5041671;28;46596;-72
2023/07/13 03:59:37;;;;;;;;;4.67;3.00;;;;;-147.70;100.00;61350.09;5059577;28;45421;-72
2023/07/13 04:02:04;;;;;;;;;6.00;4.00;;;;;-147.70;100.00;61350.09;5058141;28;45433;-71
2023/07/13 04:04:30;;;;;;;;;4.00;3.00;;;;;-147.70;100.00;61350.09;5039529;28;45527;-73
2023/07/13 04:06:58;;;;;;;;;5.33;3.00;;;;;-147.70;100.00;61350.09;5039095;28;46693;-72
2023/07/13 04:09:24;;;;;;;;;7.67;3.00;;;;;-147.70;100.00;61350.09;5039211;28;45384;-72
2023/07/13 04:11:49;;;;;;;;;4.33;3.00;;;;;-147.70;100.00;61350.09;5040164;28;45434;-72
2023/07/13 04:14:15;;;;;;;;;5.00;2.00;;;;;-147.70;100.00;61350.09;5039453;28;45403;-72
2023/07/13 04:16:40;;;;;;;;;4.00;2.00;;;;;-147.70;100.00;61350.09;5039021;28;46934;-73
2023/07/13 04:19:06;;;;;;;;;5.00;3.00;;;;;-147.70;100.00;61350.09;5044048;28;45394;-73
2023/07/13 04:21:31;;;;;;;;;6.00;4.00;;;;;-147.70;100.00;61350.09;5057682;28;45387;-72
2023/07/13 04:23:57;;;;;;;;;4.67;1.33;;;;;-147.70;100.00;61350.09;5059434;28;45352;-72
2023/07/13 04:26:23;;;;;;;;;3.00;3.00;;;;;-147.70;100.00;61350.09;5059276;28;45512;-72
2023/07/13 04:28:50;;;;;;;;;3.33;3.33;;;;;-147.70;100.00;61350.09;5059031;28;45257;-73
2023/07/13 04:31:16;;;;;;;;;4.00;2.33;;;;;-147.70;100.00;61350.09;5059037;28;45249;-71
2023/07/13 04:33:42;;;;;;;;;5.33;3.67;;;;;-147.70;100.00;61350.09;5058686;28;45336;-72
2023/07/13 04:36:09;;;;;;;;;4.33;2.00;;;;;-147.70;100.00;61350.09;5058684;28;46446;-72
2023/07/13 04:38:36;;;;;;;;;5.00;3.67;;;;;-147.70;100.00;61350.09;5058950;28;45420;-72
2023/07/13 04:41:04;;;;;;;;;5.33;2.00;;;;;-147.70;100.00;61350.09;5059136;28;45399;-73
2023/07/13 04:43:31;;;;;;;;;6.33;4.00;;;;;-147.70;100.00;61350.09;5040648;28;45341;-73
2023/07/13 04:45:57;;;;;;;;;7.33;3.00;;;;;-147.70;100.00;61350.09;5038624;28;45338;-71
2023/07/13 04:48:23;;;;;;;;;3.67;3.00;;;;;-147.70;100.00;61350.09;5038479;28;45357;-72
2023/07/13 04:50:55;;;;;;;;;4.33;2.67;;;;;-147.70;100.00;61350.09;5038409;28;45328;-72
2023/07/13 04:53:21;;;;;;;;;5.33;2.33;;;;;-147.70;100.00;61350.09;5037612;28;45547;-72
2023/07/13 04:55:47;;;;;;;;;2.67;2.67;;;;;-147.70;100.00;61350.09;5038466;28;45628;-72
2023/07/13 04:58:12;;;;;;;;;2.00;2.00;;;;;-147.70;100.00;61350.09;5038372;28;45888;-71
2023/07/13 05:00:39;;;;;;;;;3.00;2.00;;;;;-147.70;100.00;61350.09;5038780;28;45262;-72
2023/07/13 05:03:04;;;;;;;;;5.33;2.00;;;;;-147.70;100.00;61350.09;5038451;28;45735;-73
2023/07/13 05:05:30;;;;;;;;;3.67;2.00;;;;;-147.70;100.00;61350.09;5057169;28;46239;-72
2023/07/13 05:07:56;;;;;;;;;3.67;2.33;;;;;-147.70;100.00;61350.09;5040262;28;45420;-72
2023/07/13 05:10:21;;;;;;;;;4.00;1.33;;;;;-147.70;100.00;61350.09;5037173;28;45331;-72
2023/07/13 05:12:47;;;;;;;;;6.67;4.33;;;;;-147.70;100.00;61350.09;5038622;28;45234;-72
2023/07/13 05:15:12;;;;;;;;;5.67;3.00;;;;;-147.70;100.00;61350.09;5038045;28;47415;-72
2023/07/13 05:17:40;;;;;;;;;4.00;3.00;;;;;-147.70;100.00;61350.09;5038117;28;45289;-72
2023/07/13 05:20:08;;;;;;;;;1.00;1.00;;;;;-147.70;100.00;61350.09;5038518;28;45417;-71
2023/07/13 05:22:34;;;;;;;;;4.67;3.33;;;;;-147.70;100.00;61350.09;5038169;28;45516;-72
2023/07/13 05:25:01;;;;;;;;;3.67;2.00;;;;;-147.70;100.00;61350.09;5037960;28;46353;-72
2023/07/13 05:27:26;;;;;;;;;4.33;2.00;;;;;-147.70;100.00;61350.09;5037904;28;45418;-73
2023/07/13 05:29:51;;;;;;;;;3.00;2.00;;;;;-147.70;100.00;61350.09;5038231;28;45607;-72
2023/07/13 05:32:18;;;;;;;;;3.00;3.00;;;;;-147.70;100.00;61350.09;5043536;28;45324;-73
2023/07/13 05:34:43;;;;;;;;;4.33;3.00;;;;;-147.70;100.00;61350.09;5057611;28;45539;-72
2023/07/13 05:37:08;;;;;;;;;5.00;4.00;;;;;-147.70;100.00;61350.09;5057944;28;45333;-73
2023/07/13 05:39:34;;;;;;;;;4.33;3.00;;;;;-147.70;100.00;61350.09;5058172;28;45800;-72
2023/07/13 05:42:00;;;;;;;;;6.00;6.00;;;;;-147.70;100.00;61350.09;5046848;28;45307;-73
2023/07/13 05:44:25;;;;;;;;;5.33;3.00;;;;;-147.70;100.00;61350.09;5037692;28;46387;-72
2023/07/13 05:46:50;;;;;;;;;3.33;2.00;;;;;-147.70;100.00;61350.09;5037730;28;45239;-72
2023/07/13 05:49:16;;;;;;;;;5.00;3.33;;;;;-147.70;100.00;61350.09;5037905;28;45517;-72
2023/07/13 05:51:41;;;;;;;;;1.67;1.67;;;;;-147.70;100.00;61350.09;5037751;28;45521;-72
2023/07/13 05:54:06;;;;;;;;;4.33;2.00;;;;;-147.70;100.00;61350.09;5037733;28;45454;-71
2023/07/13 05:56:32;;;;;;;;;5.00;3.00;;;;;-147.70;100.00;61350.09;5045903;28;45298;-71
2023/07/13 05:58:57;;;;;;;;;7.00;5.00;;;;;-147.70;100.00;61350.09;5054062;28;45258;-72
2023/07/13 06:01:23;;;;;;;;;3.00;3.00;;;;;-147.70;100.00;61350.09;5043896;28;45430;-72
2023/07/13 06:03:49;;;;;;;;;3.00;3.00;;;;;-147.70;100.00;61350.09;5057347;28;46417;-71
2023/07/13 06:06:15;;;;;;;;;4.33;3.00;;;;;-147.70;100.00;61350.09;5057449;28;45376;-73
2023/07/13 06:08:40;;;;;;;;;6.00;2.00;;;;;-147.70;100.00;61350.09;5048684;28;45444;-72
2023/07/13 06:11:12;;;;;;;;;4.33;2.33;;;;;-147.70;100.00;61350.09;5037522;28;45372;-73
2023/07/13 06:13:37;;;;;;;;;9.67;3.33;;;;;-147.70;100.00;61350.09;5037209;28;45587;-72
2023/07/13 06:16:04;;;;;;;;;4.33;3.67;;;;;-147.70;100.00;61350.09;5037358;28;45206;-73
2023/07/13 06:18:31;;;;;;;;;1.00;1.00;;;;;-147.70;100.00;61350.09;5038408;28;45479;-72
2023/07/13 06:20:56;;;;;;;;;7.33;4.00;;;;;-147.70;100.00;61350.09;5037432;28;45372;-72
2023/07/13 06:23:22;;;;;;;;;2.33;2.33;;;;;-147.70;100.00;61350.09;5037212;28;46049;-72
2023/07/13 06:25:47;;;;;;;;;6.00;5.67;;;;;-147.70;100.00;61350.09;5037228;28;45416;-74
2023/07/13 06:28:12;;;;;;;;;8.67;3.00;;;;;-147.70;100.00;61350.09;5037268;28;45466;-73
2023/07/13 06:30:39;;;;;;;;;3.33;3.33;;;;;-147.70;100.00;61350.09;5047052;28;45464;-73
2023/07/13 06:33:04;;;;;;;;;7.00;2.33;;;;;-147.70;100.00;61350.09;5057056;28;45379;-72
2023/07/13 06:35:29;;;;;;;;;4.67;3.00;;;;;-147.70;100.00;61350.09;5038008;28;45343;-72
2023/07/13 06:37:55;;;;;;;;;4.00;3.00;;;;;-147.70;100.00;61350.09;5046667;28;45255;-73
2023/07/13 06:40:20;;;;;;;;;3.00;3.00;;;;;-147.70;100.00;61350.09;5056004;28;45420;-72
2023/07/13 06:42:45;;;;;;;;;8.00;3.67;;;;;-147.70;100.00;61350.09;5057158;28;46495;-73
2023/07/13 06:45:11;;;;;;;;;2.00;2.00;;;;;-147.70;100.00;61350.09;5057102;28;45204;-73
2023/07/13 06:47:36;;;;;;;;;8.67;5.00;;;;;-147.70;100.00;61350.09;5057106;28;45367;-73
2023/07/13 06:50:01;;;;;;;;;3.33;3.00;;;;;-147.70;100.00;61350.09;5057360;28;45317;-72
2023/07/13 06:52:27;;;;;;;;;3.00;3.00;;;;;-147.70;100.00;61350.09;5048709;28;46481;-72
2023/07/13 06:54:52;;;;;;;;;5.00;3.33;;;;;-147.70;100.00;61350.09;5037428;28;45266;-74
2023/07/13 06:57:17;;;;;;;;;36.00;31.00;;;;;-147.70;100.00;61350.09;5036885;28;45254;-73
2023/07/13 06:59:43;;;;;;;;;6.67;3.67;;;;;-147.70;100.00;61350.09;5037130;28;45410;-70
2023/07/13 07:02:10;;;;;;;;;5.33;3.67;;;;;-147.70;100.00;61350.09;5036678;28;45286;-73
2023/07/13 07:04:36;;;;;;;;;5.00;3.00;;;;;-147.70;100.00;61350.09;5037672;28;45359;-72
2023/07/13 07:07:01;;;;;;;;;3.33;2.00;;;;;-147.70;100.00;61350.09;5036733;28;45397;-72
2023/07/13 07:09:27;;;;;;;;;4.33;3.33;;;;;-147.70;100.00;61350.09;5054588;28;45269;-73
2023/07/13 07:11:52;;;;;;;;;9.00;6.00;;;;;-147.70;100.00;61350.09;5054766;28;46089;-72
2023/07/13 07:14:17;;;;;;;;;7.67;3.00;;;;;-147.70;100.00;61350.09;5036581;28;45277;-73
2023/07/13 07:16:43;;;;;;;;;6.00;3.33;;;;;-147.70;100.00;61350.09;5036778;28;45372;-73
2023/07/13 07:19:08;;;;;;;;;5.00;4.00;;;;;-147.70;100.00;61350.09;5037048;28;45393;-72
2023/07/13 07:21:33;;;;;;;;;6.00;3.67;;;;;-147.70;100.00;61350.09;5047462;28;45364;-72
2023/07/13 07:23:59;;;;;;;;;8.00;3.00;;;;;-147.70;100.00;61350.09;5039999;28;45306;-75
2023/07/13 07:26:25;;;;;;;;;4.33;3.67;;;;;-147.70;100.00;61350.09;5036655;28;45358;-75
2023/07/13 07:28:51;;;;;;;;;3.33;3.00;;;;;-147.70;100.00;61350.09;5056517;28;45304;-73
2023/07/13 07:31:16;;;;;;;;;6.00;4.67;;;;;-147.70;100.00;61350.09;5050581;28;46294;-74
2023/07/13 07:33:42;;;;;;;;;8.67;3.67;;;;;-147.70;100.00;61350.09;5056529;28;45408;-75
2023/07/13 07:36:08;;;;;;;;;5.00;2.67;;;;;-147.70;100.00;61350.09;5050582;28;45421;-74
2023/07/13 07:38:33;;;;;;;;;5.00;3.00;;;;;-147.70;100.00;61350.09;5052421;28;45589;-75
2023/07/13 07:41:05;;;;;;;;;3.33;3.00;;;;;-147.70;100.00;61350.09;5058764;28;46820;-73
2023/07/13 07:43:31;;;;;;;;;13.00;9.33;;;;;-147.70;100.00;61350.09;5058764;28;45357;-73
2023/07/13 07:45:56;;;;;;;;;1.67;1.00;;;;;-147.70;100.00;61350.09;5058868;28;45314;-74
2023/07/13 07:48:22;;;;;;;;;6.00;4.00;;;;;-147.70;100.00;61350.09;5059054;28;45387;-72
2023/07/13 07:50:47;;;;;;;;;3.00;3.00;;;;;-147.70;100.00;61350.09;5058888;28;45767;-75
2023/07/13 07:53:12;;;;;;;;;4.33;2.67;;;;;-147.70;100.00;61350.09;5058547;28;45442;-73
2023/07/13 07:55:38;;;;;;;;;10.67;6.00;;;;;-147.70;100.00;61350.09;5058893;28;45415;-73
2023/07/13 07:58:04;;;;;;;;;4.00;3.00;;;;;-147.70;100.00;61350.09;5059306;28;45379;-73
2023/07/13 08:00:31;;;;;;;;;4.33;3.00;;;;;-147.70;100.00;61350.09;5055818;28;46283;-73
2023/07/13 08:02:57;;;;;;;;;3.33;2.67;;;;;-147.70;100.00;61350.09;5058571;28;45428;-74
2023/07/13 08:05:22;;;;;;;;;5.00;3.00;;;;;-147.70;100.00;61350.09;5056000;28;45511;-73
2023/07/13 08:07:47;;;;;;;;;7.33;5.67;;;;;-147.70;100.00;61350.09;5048369;28;45622;-73
2023/07/13 08:10:13;;;;;;;;;12.33;8.33;;;;;-147.70;100.00;61350.09;5049554;28;46280;-73
2023/07/13 08:12:39;;;;;;;;;4.00;3.67;;;;;-147.70;100.00;61350.09;5049713;28;46879;-75
2023/07/13 08:15:08;;;;;;;;;6.67;4.00;;;;;-147.70;100.00;61350.09;5054583;28;45221;-74
2023/07/13 08:17:34;;;;;;;;;4.33;2.00;;;;;-147.70;100.00;61350.09;5050308;28;45482;-72
2023/07/13 08:19:59;;;;;;;;;5.33;3.33;;;;;-147.70;100.00;61350.09;5039684;28;46616;-75
2023/07/13 08:22:24;;;;;;;;;4.67;4.67;;;;;-147.70;100.00;61350.09;5039146;28;45275;-73
2023/07/13 08:24:55;;;;;;;;;2.00;2.00;;;;;-147.70;100.00;61350.09;5049626;28;45527;-75
2023/07/13 08:27:25;;;;;;;;;14.67;11.00;;;;;-147.70;100.00;61350.09;5044242;28;45341;-75
2023/07/13 08:29:51;;;;;;;;;10.33;5.00;;;;;-147.70;100.00;61350.09;5040041;28;46564;-74
2023/07/13 08:32:18;;;;;;;;;3.00;3.00;;;;;-147.70;100.00;61350.09;5052859;28;45353;-75
2023/07/13 08:34:43;;;;;;;;;4.00;2.00;;;;;-147.70;100.00;61350.09;5045269;28;45494;-76
2023/07/13 08:37:09;;;;;;;;;4.67;3.00;;;;;-147.70;100.00;61350.09;5038960;28;45403;-75
2023/07/13 08:39:35;;;;;;;;;4.00;2.67;;;;;-147.70;100.00;61350.09;5046240;28;46442;-76
2023/07/13 08:42:21;;;;;;;;;5.00;3.00;;;;;-147.70;100.00;61350.09;5038813;28;45348;-77
2023/07/13 08:45:12;;;;;;;;;3.00;3.00;;;;;-147.70;100.00;61350.09;5038870;28;45255;-79
2023/07/13 08:47:44;;;;;;;;;4.33;4.00;;;;;-147.70;100.00;61350.09;5051611;28;45360;-78
2023/07/13 08:50:17;;;;;;;;;1.00;1.00;;;;;-147.70;100.00;61350.09;5051020;28;45428;-77
2023/07/13 08:52:43;;;;;;;;;4.33;3.33;;;;;-147.70;100.00;61350.09;5050194;28;45335;-78
2023/07/13 08:55:20;;;;;;;;;3.00;2.00;;;;;-147.70;100.00;61350.09;5058943;28;45383;-77
2023/07/13 08:57:52;;;;;;;;;6.00;3.00;;;;;-147.70;100.00;61350.09;5054446;28;45527;-75
2023/07/13 09:00:18;;;;;;;;;4.67;3.00;;;;;-147.70;100.00;61350.09;5051996;28;45512;-78
2023/07/13 09:02:49;;;;;;;;;4.00;3.00;;;;;-147.70;100.00;61350.09;5055893;28;46881;-77
2023/07/13 09:05:25;;;;;;;;;3.67;3.67;;;;;-147.70;100.00;61350.09;5051465;28;45401;-77
2023/07/13 09:07:50;;;;;;;;;5.00;3.00;;;;;-147.70;100.00;61350.09;5056444;28;45524;-77
2023/07/13 09:10:33;;;;;;;;;3.00;2.00;;;;;-147.70;100.00;61350.09;5051109;28;45947;-77
2023/07/13 09:13:23;;;;;;;;;4.67;3.00;;;;;-147.70;100.00;61350.09;5042076;28;45500;-75
2023/07/13 09:15:49;;;;;;;;;4.67;2.00;;;;;-147.70;100.00;61350.09;5047989;28;45359;-78
2023/07/13 09:18:33;;;;;;;;;2.00;2.00;;;;;-147.70;100.00;61350.09;5042328;28;45815;-78
2023/07/13 09:21:10;;;;;;;;;2.33;2.00;;;;;-147.70;100.00;61350.09;5046738;28;46364;-76
2023/07/13 09:23:36;;;;;;;;;3.00;3.00;;;;;-147.70;100.00;61350.09;5037743;28;45391;-76
2023/07/13 09:26:10;;;;;;;;;7.00;6.00;;;;;-147.70;100.00;61350.09;5038076;28;45255;-81
2023/07/13 09:28:43;;;;;;;;;5.00;3.00;;;;;-147.70;100.00;61350.09;5038311;28;45375;-80
2023/07/13 09:31:39;;;;;;;;;6.67;6.67;;;;;-147.70;100.00;61350.09;5037751;28;45628;-80
2023/07/13 09:34:10;;;;;;;;;6.67;3.00;;;;;-147.70;100.00;61350.09;5037843;28;45368;-78
2023/07/13 09:36:35;;;;;;;;;3.33;2.00;;;;;-147.70;100.00;61350.09;5037914;28;45384;-80
2023/07/13 09:39:29;;;;;;;;;12.00;12.00;;;;;-147.70;100.00;61350.09;5037931;28;45472;-80
2023/07/13 09:41:58;;;;;;;;;2.00;2.00;;;;;-147.70;100.00;61350.09;5037714;28;45371;-78
2023/07/13 09:44:38;;;;;;;;;1.33;1.33;;;;;-147.70;100.00;61350.09;5037565;28;45156;-81
2023/07/13 09:47:15;;;;;;;;;2.00;2.00;;;;;-147.70;100.00;61350.09;5038116;28;45318;-77
2023/07/13 09:49:43;;;;;;;;;1.00;1.00;;;;;-147.70;100.00;61350.09;5055698;28;45274;-78
2023/07/13 09:52:12;;;;;;;;;4.00;4.00;;;;;-147.70;100.00;61350.09;5056771;28;46142;-79
2023/07/13 09:54:38;;;;;;;;;3.00;3.00;;;;;-147.70;100.00;61350.09;5043248;28;46542;-81
2023/07/13 09:57:12;;;;;;;;;1.00;1.00;;;;;-147.70;100.00;61350.09;5037271;28;45949;-77
2023/07/13 09:59:46;;;;;;;;;2.00;2.00;;;;;-147.70;100.00;61350.09;5046294;28;45344;-76
2023/07/13 10:02:29;;;;;;;;;1.00;1.00;;;;;-147.70;100.00;61350.09;5039857;28;46709;-75
2023/07/13 10:05:00;;;;;;;;;2.67;1.00;;;;;-147.70;100.00;61350.09;5037902;28;45610;-70
2023/07/13 10:07:26;;;;;;;;;3.00;1.00;;;;;-147.70;100.00;61350.09;5039293;28;45757;-76
2023/07/13 10:10:02;;;;;;;;;4.00;2.00;;;;;-147.70;100.00;61350.09;5052866;28;45469;-71
2023/07/13 10:12:30;;;;;;;;;6.33;6.33;;;;;-147.70;100.00;61350.09;5052195;28;46229;-74
2023/07/13 10:14:58;;;;;;;;;1.33;1.33;;;;;-147.70;100.00;61350.09;5051548;28;46964;-74
2023/07/13 10:17:32;;;;;;;;;2.00;1.00;;;;;-147.70;100.00;61350.09;5053097;28;45391;-73
2023/07/13 10:20:04;;;;;;;;;2.33;0.67;;;;;-147.70;100.00;61350.09;5047309;28;45506;-75
2023/07/13 10:22:37;;;;;;;;;1.67;0.67;;;;;-147.70;100.00;61350.09;5052812;28;46592;-76
2023/07/13 10:25:14;;;;;;;;;3.33;2.00;;;;;-147.70;100.00;61350.09;5044196;28;45315;-75
2023/07/13 10:27:40;;;;;;;;;3.00;2.00;;;;;-147.70;100.00;61350.09;5053906;28;45301;-75
2023/07/13 10:30:29;;;;;;;;;1.00;1.00;;;;;-147.70;100.00;61350.09;5053220;28;45923;-74
2023/07/13 10:32:58;;;;;;;;;2.67;1.00;;;;;-147.70;100.00;61350.09;5048139;28;46180;-74
2023/07/13 10:35:26;;;;;;;;;1.00;1.00;;;;;-147.70;100.00;61350.09;5046349;28;45195;-74
2023/07/13 10:38:09;;;;;;;;;1.00;1.00;;;;;-147.70;100.00;61350.09;5057009;28;45390;-74
2023/07/13 10:40:42;;;;;;;;;1.00;1.00;;;;;-147.70;100.00;61350.09;5056301;28;45411;-75
2023/07/13 10:43:21;;;;;;;;;0.00;0.00;;;;;-147.70;100.00;61350.09;5041918;28;47086;-75
2023/07/13 10:45:49;;;;;;;;;0.67;0.67;;;;;-147.70;100.00;61350.09;5054365;28;45533;-74
2023/07/13 10:48:16;;;;;;;;;3.33;2.00;;;;;-147.70;100.00;61350.09;5046192;28;45335;-74
2023/07/13 10:50:45;;;;;;;;;4.33;1.33;;;;;-147.70;100.00;61350.09;5051214;28;45499;-76
2023/07/13 10:53:20;;;;;;;;;0.67;0.67;;;;;-147.70;100.00;61350.09;5053275;28;47403;-75
2023/07/13 10:55:50;;;;;;;;;2.33;2.33;;;;;-147.70;100.00;61350.09;5045051;28;46593;-73
2023/07/13 10:58:44;;;;;;;;;1.00;1.00;;;;;-147.70;100.00;61350.09;5052359;28;45305;-73
2023/07/13 11:01:15;;;;;;;;;0.00;0.00;;;;;-147.70;100.00;61350.09;5052690;28;45462;-74
2023/07/13 11:03:43;;;;;;;;;3.00;1.67;;;;;-147.70;100.00;61350.09;5039707;28;47136;-75
2023/07/13 11:06:18;;;;;;;;;15.33;15.33;;;;;-147.70;100.00;61350.09;5052807;28;45513;-76
2023/07/13 11:08:46;;;;;;;;;3.67;1.67;;;;;-147.70;100.00;61350.09;5045584;28;45238;-74
2023/07/13 11:11:24;;;;;;;;;0.67;0.67;;;;;-147.70;100.00;61350.09;5059318;28;45597;-75